Time;durP1;ratioP1;P1;durP2;ratioP2;P2;SDS_P1;SDS_P2;PMS_P1;PMS_P2;Temp;Humidity;BMP_temperature;BMP_pressure;BME280_temperature;BME280_humidity;BME280_pressure;Samples;Min_cycle;Max_cycle;Signal;HPM_P1;HPM_P2
2024/04/10 00:00:06;;;;;;;21.88;4.30;;;;;;;7.68;100.00;101884.72;5366421;26;20462;-73
2024/04/10 00:02:32;;;;;;;20.55;4.25;;;;;;;7.63;100.00;101894.22;5362252;26;20087;-65
2024/04/10 00:04:57;;;;;;;19.98;4.38;;;;;;;7.60;100.00;101888.84;5364852;26;20387;-72
2024/04/10 00:07:22;;;;;;;21.23;4.18;;;;;;;7.64;100.00;101897.72;5362780;26;20000;-67
2024/04/10 00:09:48;;;;;;;20.65;4.28;;;;;;;7.64;100.00;101905.63;5362238;26;20399;-65
2024/04/10 00:12:13;;;;;;;21.60;4.00;;;;;;;7.61;100.00;101901.16;5366816;26;19996;-71
2024/04/10 00:14:39;;;;;;;21.55;4.30;;;;;;;7.60;100.00;101904.66;5360597;26;19997;-67
2024/04/10 00:17:05;;;;;;;22.40;4.30;;;;;;;7.54;100.00;101901.78;5366205;26;20007;-73
2024/04/10 00:19:30;;;;;;;21.13;4.10;;;;;;;7.45;100.00;101904.13;5362979;26;20000;-74
2024/04/10 00:21:56;;;;;;;21.63;4.32;;;;;;;7.41;100.00;101912.72;5364024;26;20008;-72
2024/04/10 00:24:21;;;;;;;22.23;4.38;;;;;;;7.45;100.00;101914.63;5364768;26;20073;-72
2024/04/10 00:26:50;;;;;;;23.30;4.60;;;;;;;7.44;100.00;101918.09;5362197;26;19993;-66
2024/04/10 00:29:16;;;;;;;23.02;4.50;;;;;;;7.37;100.00;101914.38;5365865;26;20393;-68
2024/04/10 00:31:42;;;;;;;22.63;4.03;;;;;;;7.33;100.00;101915.13;5360990;26;19996;-67
2024/04/10 00:34:07;;;;;;;22.83;4.60;;;;;;;7.36;100.00;101928.38;5366621;26;20004;-67
2024/04/10 00:36:33;;;;;;;20.23;4.45;;;;;;;7.33;100.00;101931.78;5361868;26;20011;-67
2024/04/10 00:38:58;;;;;;;21.15;3.97;;;;;;;7.29;100.00;101929.00;5364749;26;20432;-67
2024/04/10 00:41:23;;;;;;;22.88;4.53;;;;;;;7.25;100.00;101935.91;5364085;26;20010;-70
2024/04/10 00:43:49;;;;;;;23.08;4.20;;;;;;;7.21;100.00;101941.88;5362087;26;19993;-70
2024/04/10 00:46:23;;;;;;;21.38;4.20;;;;;;;7.27;100.00;101955.25;5366484;26;20028;-66
2024/04/10 00:48:49;;;;;;;21.65;4.47;;;;;;;7.32;100.00;101951.06;5365267;26;20008;-66
2024/04/10 00:51:20;;;;;;;22.90;4.13;;;;;;;7.43;100.00;101950.53;5369260;26;20077;-71
2024/04/10 00:53:46;;;;;;;20.95;4.00;;;;;;;7.44;100.00;101950.59;5364030;26;19993;-69
2024/04/10 00:56:12;;;;;;;21.85;4.57;;;;;;;7.49;100.00;101948.13;5368040;26;20003;-73
2024/04/10 00:58:38;;;;;;;22.63;4.40;;;;;;;7.51;100.00;101943.78;5363716;26;19997;-70
2024/04/10 01:01:04;;;;;;;23.80;4.53;;;;;;;7.51;100.00;101943.78;5368620;26;19992;-75
2024/04/10 01:03:31;;;;;;;21.35;4.13;;;;;;;7.55;100.00;101945.69;5365898;26;20443;-73
2024/04/10 01:06:09;;;;;;;19.83;4.20;;;;;;;7.59;100.00;101947.59;5366668;26;19997;-69
2024/04/10 01:08:37;;;;;;;21.52;4.32;;;;;;;7.59;100.00;101946.69;5364136;26;20483;-70
2024/04/10 01:11:05;;;;;;;22.45;4.15;;;;;;;7.58;100.00;101961.56;5368164;26;20012;-70
2024/04/10 01:13:32;;;;;;;21.67;4.38;;;;;;;7.56;100.00;101971.16;5364852;26;19996;-68
2024/04/10 01:15:57;;;;;;;22.20;4.53;;;;;;;7.59;100.00;101968.63;5367039;26;20011;-67
2024/04/10 01:18:23;;;;;;;22.15;4.40;;;;;;;7.59;100.00;101976.53;5367033;26;20334;-65
2024/04/10 01:20:49;;;;;;;21.25;4.30;;;;;;;7.56;100.00;101976.44;5364642;26;20347;-65
2024/04/10 01:23:18;;;;;;;19.88;4.07;;;;;;;7.52;100.00;101978.91;5369088;26;20331;-75
2024/04/10 01:25:44;;;;;;;20.17;4.47;;;;;;;7.53;100.00;101986.84;5363570;26;20008;-75
2024/04/10 01:28:09;;;;;;;22.85;4.70;;;;;;;7.54;100.00;101991.25;5369390;26;20008;-75
2024/04/10 01:30:35;;;;;;;22.33;4.60;;;;;;;7.51;100.00;101996.41;5364014;26;20005;-65
2024/04/10 01:33:00;;;;;;;21.60;4.30;;;;;;;7.49;100.00;102000.72;5365935;26;20008;-74
2024/04/10 01:35:25;;;;;;;20.95;4.55;;;;;;;7.61;100.00;102016.06;5364326;26;20043;-76
2024/04/10 01:37:51;;;;;;;21.27;4.10;;;;;;;7.60;100.00;102015.19;5365417;26;20001;-67
2024/04/10 01:40:16;;;;;;;21.45;4.40;;;;;;;7.64;100.00;102009.16;5368811;26;20334;-74
2024/04/10 01:42:45;;;;;;;22.42;4.40;;;;;;;7.73;100.00;102008.56;5363433;26;19997;-71
2024/04/10 01:45:11;;;;;;;20.05;4.05;;;;;;;7.72;100.00;102016.41;5356442;26;20030;-69
2024/04/10 01:47:37;;;;;;;21.45;4.43;;;;;;;7.71;100.00;102018.16;5369282;26;20436;-76
2024/04/10 01:50:03;;;;;;;20.63;4.60;;;;;;;7.63;100.00;102027.53;5367929;26;20367;-75
2024/04/10 01:52:28;;;;;;;20.92;4.68;;;;;;;7.52;100.00;102029.78;5366426;26;20435;-75
2024/04/10 01:54:54;;;;;;;20.45;4.40;;;;;;;7.54;100.00;102041.25;5366352;26;20007;-75
2024/04/10 01:57:21;;;;;;;21.70;4.72;;;;;;;7.51;100.00;102051.66;5368310;26;20074;-73
2024/04/10 01:59:47;;;;;;;20.70;4.70;;;;;;;7.48;100.00;102056.81;5363353;26;20436;-74
2024/04/10 02:02:13;;;;;;;20.67;4.50;;;;;;;7.51;100.00;102051.66;5370237;26;20000;-75
2024/04/10 02:04:42;;;;;;;20.92;4.68;;;;;;;7.47;100.00;102060.28;5355270;26;20001;-75
2024/04/10 02:07:07;;;;;;;21.42;4.85;;;;;;;7.41;100.00;102066.25;5367767;26;20007;-64
2024/04/10 02:09:33;;;;;;;21.55;5.13;;;;;;;7.42;100.00;102062.75;5365218;26;20008;-65
2024/04/10 02:12:02;;;;;;;20.45;4.88;;;;;;;7.37;100.00;102068.69;5366980;26;20509;-65
2024/04/10 02:14:28;;;;;;;21.60;4.72;;;;;;;7.28;100.00;102067.53;5364212;26;20010;-65
2024/04/10 02:16:53;;;;;;;21.25;4.90;;;;;;;7.25;100.00;102064.78;5365899;26;20017;-66
2024/04/10 02:19:19;;;;;;;21.58;4.90;;;;;;;7.24;100.00;102073.50;5368318;26;20640;-65
2024/04/10 02:21:45;;;;;;;21.27;4.80;;;;;;;7.27;100.00;102073.63;5363420;26;20008;-66
2024/04/10 02:24:11;;;;;;;21.88;5.10;;;;;;;7.26;100.00;102081.44;5367669;26;20423;-65
2024/04/10 02:26:37;;;;;;;20.83;4.85;;;;;;;7.28;100.00;102087.66;5363799;26;20063;-65
2024/04/10 02:29:03;;;;;;;22.15;5.30;;;;;;;7.26;100.00;102079.69;5367814;26;20001;-65
2024/04/10 02:31:28;;;;;;;20.85;5.00;;;;;;;7.24;100.00;102085.75;5364919;26;20003;-66
2024/04/10 02:33:53;;;;;;;22.27;5.20;;;;;;;7.25;100.00;102093.72;5364706;26;20000;-72
2024/04/10 02:36:19;;;;;;;20.55;4.93;;;;;;;7.23;100.00;102098.00;5367407;26;20003;-69
2024/04/10 02:38:44;;;;;;;19.50;5.38;;;;;;;7.22;100.00;102101.47;5362260;26;20001;-70
2024/04/10 02:41:10;;;;;;;22.38;5.25;;;;;;;7.21;100.00;102106.66;5368245;26;20000;-65
2024/04/10 02:43:35;;;;;;;20.70;5.13;;;;;;;7.19;100.00;102110.97;5363451;26;19997;-67
2024/04/10 02:46:02;;;;;;;22.25;5.00;;;;;;;7.18;100.00;102117.06;5366078;26;20011;-75
2024/04/10 02:48:28;;;;;;;20.88;5.00;;;;;;;7.17;100.00;102118.81;5364754;26;20007;-72
2024/04/10 02:50:55;;;;;;;23.13;5.10;;;;;;;7.16;100.00;102122.28;5364712;26;20000;-71
2024/04/10 02:53:20;;;;;;;21.70;5.07;;;;;;;7.16;100.00;102127.53;5366718;26;19996;-70
2024/04/10 02:55:47;;;;;;;21.45;5.20;;;;;;;7.13;100.00;102130.94;5362284;26;20094;-68
2024/04/10 02:58:13;;;;;;;23.30;5.57;;;;;;;7.07;100.00;102140.34;5368108;26;20000;-67
2024/04/10 03:00:46;;;;;;;21.70;4.93;;;;;;;7.03;100.00;102136.66;5362462;26;20471;-70
2024/04/10 03:03:12;;;;;;;21.92;4.97;;;;;;;7.03;100.00;102141.03;5355491;26;20309;-71
2024/04/10 03:05:41;;;;;;;22.05;5.20;;;;;;;7.02;100.00;102147.13;5367961;26;20399;-65
2024/04/10 03:08:07;;;;;;;20.77;5.07;;;;;;;7.05;100.00;102150.78;5362655;26;20004;-65
2024/04/10 03:10:33;;;;;;;21.38;4.95;;;;;;;7.08;100.00;102152.66;5364144;26;20029;-71
2024/04/10 03:12:59;;;;;;;23.75;5.25;;;;;;;7.09;100.00;102159.69;5364563;26;19993;-73
2024/04/10 03:15:25;;;;;;;21.85;5.15;;;;;;;7.11;100.00;102165.91;5363802;26;20433;-73
2024/04/10 03:17:50;;;;;;;21.52;5.07;;;;;;;7.13;100.00;102173.00;5366359;26;20020;-72
2024/04/10 03:20:17;;;;;;;22.02;5.13;;;;;;;7.14;100.00;102174.81;5362590;26;20009;-74
2024/04/10 03:22:42;;;;;;;20.10;4.75;;;;;;;7.18;100.00;102177.56;5368020;26;19996;-70
2024/04/10 03:25:07;;;;;;;20.35;4.93;;;;;;;7.19;100.00;102180.25;5362142;26;20011;-72
2024/04/10 03:27:33;;;;;;;22.10;4.88;;;;;;;7.20;100.00;102187.31;5366705;26;19993;-74
2024/04/10 03:29:58;;;;;;;21.23;5.00;;;;;;;7.19;100.00;102188.13;5364735;26;20000;-76
2024/04/10 03:32:24;;;;;;;20.85;5.03;;;;;;;7.17;100.00;102179.31;5362089;26;19997;-75
2024/04/10 03:34:49;;;;;;;20.35;4.60;;;;;;;7.16;100.00;102188.03;5366795;26;20081;-75
2024/04/10 03:37:15;;;;;;;21.17;4.80;;;;;;;7.13;100.00;102193.16;5361596;26;20324;-69
2024/04/10 03:39:41;;;;;;;21.08;4.80;;;;;;;7.09;100.00;102191.25;5367723;26;20000;-67
2024/04/10 03:42:07;;;;;;;20.48;4.55;;;;;;;7.03;100.00;102199.78;5362556;26;19997;-66
2024/04/10 03:44:35;;;;;;;22.13;5.00;;;;;;;7.00;100.00;102196.13;5365671;26;19997;-68
2024/04/10 03:47:01;;;;;;;19.67;4.90;;;;;;;6.97;100.00;102208.34;5333648;26;20032;-71
2024/04/10 03:49:26;;;;;;;20.40;4.80;;;;;;;6.94;100.00;102210.81;5364374;26;20142;-65
2024/04/10 03:51:52;;;;;;;19.02;4.80;;;;;;;6.96;100.00;102219.69;5365462;26;20000;-65
2024/04/10 03:54:17;;;;;;;20.25;5.05;;;;;;;6.92;100.00;102225.66;5361934;26;20008;-73
2024/04/10 03:56:42;;;;;;;19.05;4.80;;;;;;;6.93;100.00;102226.53;5367488;26;19996;-69
2024/04/10 03:59:08;;;;;;;20.70;5.15;;;;;;;6.94;100.00;102233.59;5361789;26;19997;-73
2024/04/10 04:01:33;;;;;;;20.55;4.82;;;;;;;6.94;100.00;102241.47;5364371;26;20424;-66
2024/04/10 04:04:03;;;;;;;20.90;5.05;;;;;;;6.99;100.00;102239.94;5363933;26;20011;-65
2024/04/10 04:06:28;;;;;;;19.65;4.97;;;;;;;7.02;100.00;102237.44;5364120;26;20040;-71
2024/04/10 04:08:53;;;;;;;19.27;4.75;;;;;;;7.00;100.00;102239.09;5364985;26;20000;-67
2024/04/10 04:11:19;;;;;;;21.13;4.80;;;;;;;7.00;100.00;102243.47;5362150;26;20309;-65
2024/04/10 04:13:45;;;;;;;20.00;4.82;;;;;;;7.01;100.00;102251.41;5366796;26;20509;-68
2024/04/10 04:16:11;;;;;;;20.48;4.95;;;;;;;6.98;100.00;102254.81;5354526;26;20007;-74
2024/04/10 04:18:37;;;;;;;18.83;4.53;;;;;;;6.94;100.00;102249.38;5366071;26;20004;-68
2024/04/10 04:21:03;;;;;;;21.08;4.72;;;;;;;6.88;100.00;102257.00;5362363;26;20009;-74
2024/04/10 04:23:28;;;;;;;20.40;4.75;;;;;;;6.79;100.00;102262.78;5363698;26;20482;-68
2024/04/10 04:25:53;;;;;;;20.25;4.95;;;;;;;6.76;100.00;102263.53;5364693;26;19997;-69
2024/04/10 04:28:19;;;;;;;21.52;5.22;;;;;;;6.74;100.00;102269.53;5361873;26;20012;-70
2024/04/10 04:30:48;;;;;;;18.52;4.60;;;;;;;6.73;100.00;102278.28;5367184;26;20439;-67
2024/04/10 04:33:14;;;;;;;18.95;4.90;;;;;;;6.70;100.00;102275.50;5354486;26;20004;-65
2024/04/10 04:35:39;;;;;;;18.98;4.50;;;;;;;6.70;100.00;102281.69;5366245;26;19996;-71
2024/04/10 04:38:05;;;;;;;19.67;5.20;;;;;;;6.68;100.00;102285.06;5362390;26;19997;-73
2024/04/10 04:40:31;;;;;;;19.88;4.70;;;;;;;6.62;100.00;102290.94;5364543;26;20328;-72
2024/04/10 04:42:58;;;;;;;18.92;4.60;;;;;;;6.61;100.00;102300.56;5362375;26;20008;-75
2024/04/10 04:45:24;;;;;;;19.95;4.82;;;;;;;6.62;100.00;102301.47;5360887;26;20369;-73
2024/04/10 04:47:49;;;;;;;18.83;4.40;;;;;;;6.58;100.00;102312.66;5365707;26;19999;-75
2024/04/10 04:50:15;;;;;;;19.92;4.50;;;;;;;6.53;100.00;102308.94;5360593;26;20013;-75
2024/04/10 04:52:41;;;;;;;19.98;4.40;;;;;;;6.44;100.00;102312.94;5353846;26;20008;-75
2024/04/10 04:55:07;;;;;;;17.92;4.15;;;;;;;6.40;100.00;102321.53;5365431;26;20069;-66
2024/04/10 04:57:32;;;;;;;18.45;4.55;;;;;;;6.40;100.00;102325.88;5362518;26;20009;-66
2024/04/10 04:59:58;;;;;;;19.40;4.47;;;;;;;6.38;100.00;102328.44;5363448;26;20334;-69
2024/04/10 05:02:24;;;;;;;19.50;4.60;;;;;;;6.34;100.00;102334.38;5364410;26;19996;-66
2024/04/10 05:04:57;;;;;;;20.40;4.60;;;;;;;6.31;100.00;102336.88;5361387;26;20012;-69
2024/04/10 05:07:23;;;;;;;18.90;4.43;;;;;;;6.27;100.00;102348.94;5364536;26;20454;-71
2024/04/10 05:09:50;;;;;;;22.30;4.65;;;;;;;6.23;100.00;102354.91;5360861;26;19997;-70
2024/04/10 05:12:15;;;;;;;20.17;4.78;;;;;;;6.18;100.00;102359.03;5366061;26;20000;-67
2024/04/10 05:14:41;;;;;;;17.73;4.57;;;;;;;6.19;100.00;102362.56;5353038;26;20063;-73
2024/04/10 05:17:06;;;;;;;18.27;4.90;;;;;;;6.16;100.00;102358.09;5364797;26;19992;-68
2024/04/10 05:19:32;;;;;;;20.58;5.45;;;;;;;6.14;100.00;102362.34;5360572;26;20458;-69
2024/04/10 05:21:57;;;;;;;20.30;5.20;;;;;;;6.12;100.00;102371.91;5361015;26;19997;-75
2024/04/10 05:24:23;;;;;;;18.88;5.30;;;;;;;6.10;100.00;102378.78;5364369;26;19996;-76
2024/04/10 05:26:49;;;;;;;22.17;5.70;;;;;;;6.08;100.00;102381.34;5360468;26;19997;-66
2024/04/10 05:29:15;;;;;;;20.02;5.75;;;;;;;6.10;100.00;102384.03;5365848;26;20069;-65
2024/04/10 05:31:40;;;;;;;21.00;5.82;;;;;;;6.09;100.00;102387.50;5357869;26;20365;-69
2024/04/10 05:34:05;;;;;;;20.98;5.93;;;;;;;6.05;100.00;102391.69;5367171;26;20006;-67
2024/04/10 05:36:31;;;;;;;22.50;6.00;;;;;;;6.05;100.00;102403.94;5363934;26;20004;-65
2024/04/10 05:39:00;;;;;;;22.65;5.85;;;;;;;6.04;100.00;102412.63;5365732;26;20025;-70
2024/04/10 05:41:25;;;;;;;21.02;6.07;;;;;;;6.02;100.00;102417.81;5367290;26;20000;-71
2024/04/10 05:43:51;;;;;;;21.90;6.40;;;;;;;6.04;100.00;102425.75;5364111;26;20353;-69
2024/04/10 05:46:16;;;;;;;20.95;6.18;;;;;;;6.06;100.00;102432.88;5369280;26;20335;-70
2024/04/10 05:48:41;;;;;;;22.33;6.18;;;;;;;6.07;100.00;102434.69;5355969;26;20000;-66
2024/04/10 05:51:08;;;;;;;21.95;6.53;;;;;;;6.08;100.00;102444.34;5368161;26;20335;-66
2024/04/10 05:53:33;;;;;;;21.83;6.55;;;;;;;6.09;100.00;102446.16;5364819;26;19996;-65
2024/04/10 05:56:04;;;;;;;23.08;7.28;;;;;;;6.15;100.00;102453.44;5366326;26;20004;-71
2024/04/10 05:58:31;;;;;;;21.85;6.72;;;;;;;6.18;100.00;102453.59;5365761;26;20004;-70
2024/04/10 06:00:56;;;;;;;24.10;6.88;;;;;;;6.23;100.00;102454.72;5363697;26;20008;-68
2024/04/10 06:03:21;;;;;;;23.63;7.32;;;;;;;6.28;100.00;102466.31;5367750;26;19996;-66
2024/04/10 06:05:47;;;;;;;24.30;6.95;;;;;;;6.36;100.00;102473.66;5363055;26;20001;-71
2024/04/10 06:08:13;;;;;;;22.23;6.45;;;;;;;6.42;100.00;102480.13;5338199;26;20000;-66
2024/04/10 06:10:38;;;;;;;22.42;6.78;;;;;;;6.54;100.00;102481.50;5363453;26;20001;-67
2024/04/10 06:13:04;;;;;;;21.95;6.85;;;;;;;6.67;100.00;102486.53;5366920;26;20443;-68
2024/04/10 06:15:30;;;;;;;21.50;6.40;;;;;;;6.78;100.00;102487.91;5363309;26;20000;-65
2024/04/10 06:17:55;;;;;;;20.52;6.30;;;;;;;6.93;100.00;102499.97;5365031;26;19997;-75
2024/04/10 06:20:21;;;;;;;24.15;6.57;;;;;;;7.11;100.00;102502.53;5367699;26;20012;-68
2024/04/10 06:22:46;;;;;;;23.60;6.55;;;;;;;7.35;100.00;102496.56;5360924;26;20003;-73
2024/04/10 06:25:12;;;;;;;22.52;6.10;;;;;;;7.51;100.00;102499.03;5355382;26;20422;-73
2024/04/10 06:27:37;;;;;;;23.88;6.38;;;;;;;7.62;100.00;102499.50;5367360;26;20043;-71
2024/04/10 06:30:03;;;;;;;22.70;5.63;;;;;;;7.74;100.00;102497.38;5365001;26;20000;-72
2024/04/10 06:32:29;;;;;;;20.70;5.25;;;;;;;7.86;100.00;102499.63;5365153;26;20005;-68
2024/04/10 06:34:54;;;;;;;20.25;5.07;;;;;;;8.01;100.00;102494.13;5366313;26;20462;-67
2024/04/10 06:37:19;;;;;;;22.10;5.32;;;;;;;8.08;100.00;102497.88;5363362;26;20004;-65
2024/04/10 06:39:46;;;;;;;20.65;5.30;;;;;;;8.18;100.00;102500.06;5368608;26;20511;-69
2024/04/10 06:42:11;;;;;;;20.42;4.90;;;;;;;8.17;100.00;102498.28;5362197;26;20000;-69
2024/04/10 06:44:36;;;;;;;20.42;4.95;;;;;;;8.22;100.00;102509.00;5366557;26;20335;-65
2024/04/10 06:47:02;;;;;;;21.23;4.78;;;;;;;8.27;100.00;102504.78;5364515;26;20007;-70
2024/04/10 06:49:28;;;;;;;22.38;4.82;;;;;;;8.25;100.00;102506.47;5364548;26;20082;-66
2024/04/10 06:51:55;;;;;;;20.42;4.43;;;;;;;8.14;100.00;102520.13;5366453;26;20418;-65
2024/04/10 06:54:21;;;;;;;20.83;4.47;;;;;;;8.06;100.00;102520.63;5362434;26;20008;-65
2024/04/10 06:56:47;;;;;;;22.90;4.28;;;;;;;7.94;100.00;102519.28;5367999;26;19996;-72
2024/04/10 06:59:13;;;;;;;19.73;4.22;;;;;;;7.87;100.00;102526.88;5354983;26;20456;-67
2024/04/10 07:01:39;;;;;;;21.70;4.97;;;;;;;7.93;100.00;102530.66;5362578;26;20007;-68
2024/04/10 07:04:04;;;;;;;21.60;4.60;;;;;;;8.15;100.00;102542.06;5358926;26;20606;-68
2024/04/10 07:06:30;;;;;;;20.05;4.43;;;;;;;8.29;100.00;102533.00;5362701;26;20012;-68
2024/04/10 07:08:56;;;;;;;17.95;4.10;;;;;;;8.25;100.00;102544.25;5364271;26;19999;-71
2024/04/10 07:11:22;;;;;;;20.13;4.53;;;;;;;8.23;100.00;102540.66;5351734;26;20009;-67
2024/04/10 07:13:49;;;;;;;19.23;4.20;;;;;;;8.23;100.00;102553.84;5354377;26;20089;-65
2024/04/10 07:16:15;;;;;;;17.40;3.97;;;;;;;8.27;100.00;102553.13;5352873;26;20056;-65
2024/04/10 07:18:40;;;;;;;19.85;4.07;;;;;;;8.40;100.00;102558.91;5351541;26;20013;-67
2024/04/10 07:21:07;;;;;;;21.25;4.07;;;;;;;8.47;100.00;102560.97;5354849;26;20086;-66
2024/04/10 07:23:38;;;;;;;19.45;3.92;;;;;;;8.53;100.00;102561.22;5350355;26;20365;-66
2024/04/10 07:26:23;;;;;;;17.73;3.90;;;;;;;8.65;100.00;102560.81;5363413;26;20332;-65
2024/04/10 07:28:53;;;;;;;19.67;4.30;;;;;;;8.72;100.00;102562.84;5362102;26;19996;-66
2024/04/10 07:31:31;;;;;;;20.98;4.20;;;;;;;8.70;100.00;102562.78;5367863;26;20003;-66
2024/04/10 07:33:58;;;;;;;18.85;3.92;;;;;;;8.72;100.00;102569.03;5357177;26;19997;-65
2024/04/10 07:36:24;;;;;;;21.15;4.40;;;;;;;8.93;100.00;102578.63;5367648;26;20150;-66
2024/04/10 07:38:53;;;;;;;19.58;3.90;;;;;;;8.97;100.00;102567.34;5354750;26;20432;-66
2024/04/10 07:41:18;;;;;;;19.08;3.67;;;;;;;9.00;100.00;102570.09;5367091;26;20003;-66
2024/04/10 07:43:44;;;;;;;19.23;3.80;;;;;;;9.07;100.00;102569.50;5362435;26;19993;-65
2024/04/10 07:46:14;;;;;;;18.67;3.90;;;;;;;9.14;100.00;102575.88;5365156;26;19997;-68
2024/04/10 07:48:40;;;;;;;20.52;3.88;;;;;;;9.15;100.00;102577.69;5361737;26;20031;-74
2024/04/10 07:51:08;;;;;;;21.67;4.70;;;;;;;9.27;100.00;102569.34;5364213;26;19997;-68
2024/04/10 07:53:38;;;;;;;18.58;4.15;;;;;;;9.46;100.00;102577.94;5363231;26;20011;-66
2024/04/10 07:56:04;;;;;;;18.98;4.13;;;;;;;9.79;100.00;102574.72;5361275;26;19993;-65
2024/04/10 07:58:34;;;;;;;18.05;3.40;;;;;;;10.11;100.00;102575.81;5365577;26;20032;-65
2024/04/10 08:01:00;;;;;;;17.13;3.38;;;;;;;10.46;100.00;102586.69;5362569;26;20464;-65
2024/04/10 08:03:28;;;;;;;18.88;3.72;;;;;;;10.43;100.00;102582.19;5366953;26;20041;-65
2024/04/10 08:05:53;;;;;;;18.52;3.65;;;;;;;10.69;100.00;102590.09;5359235;26;20460;-65
2024/04/10 08:08:19;;;;;;;18.85;3.65;;;;;;;11.01;100.00;102600.78;5366991;26;19996;-65
2024/04/10 08:10:46;;;;;;;19.92;3.80;;;;;;;11.22;100.00;102607.56;5362629;26;19997;-66
2024/04/10 08:13:11;;;;;;;16.17;3.30;;;;;;;11.05;100.00;102599.97;5364782;26;20313;-65
2024/04/10 08:17:11;;;;;;;16.77;3.58;;;;;;;10.61;100.00;102603.03;5434780;26;20895;-65
2024/04/10 08:19:40;;;;;;;17.60;3.60;;;;;;;10.58;100.00;102604.69;5399860;26;20000;-65
2024/04/10 08:22:07;;;;;;;19.20;3.50;;;;;;;11.18;100.00;102608.31;5399713;26;20007;-65
2024/04/10 08:24:32;;;;;;;18.58;3.28;;;;;;;11.55;100.00;102607.63;5398319;26;20323;-65
2024/04/10 08:27:02;;;;;;;18.88;3.70;;;;;;;12.07;100.00;102607.28;5399603;26;19996;-66
2024/04/10 08:29:28;;;;;;;19.70;3.35;;;;;;;12.19;100.00;102600.56;5393157;26;20478;-66
2024/04/10 08:31:53;;;;;;;17.88;3.30;;;;;;;12.25;100.00;102604.22;5399730;26;20000;-67
2024/04/10 08:34:19;;;;;;;18.83;3.50;;;;;;;12.35;100.00;102607.13;5394346;26;20454;-65
2024/04/10 08:36:44;;;;;;;19.25;3.63;;;;;;;12.72;100.00;102610.66;5399214;26;20335;-66
2024/04/10 08:39:10;;;;;;;16.55;3.20;;;;;;;13.13;100.00;102608.94;5398986;26;20069;-66
2024/04/10 08:41:39;;;;;;;19.70;3.20;;;;;;;12.75;100.00;102619.56;5397538;26;20000;-67
2024/04/10 08:44:06;;;;;;;17.63;3.22;;;;;;;12.76;100.00;102622.28;5398966;26;20000;-68
2024/04/10 08:46:34;;;;;;;18.80;3.45;;;;;;;12.65;100.00;102637.03;5399391;26;19996;-68
2024/04/10 08:49:01;;;;;;;15.35;2.95;;;;;;;12.63;100.00;102634.34;5399162;26;20011;-66
2024/04/10 08:51:27;;;;;;;17.27;3.10;;;;;;;12.95;100.00;102634.19;5376991;26;19996;-65
2024/04/10 08:53:55;;;;;;;17.08;3.42;;;;;;;13.33;100.00;102643.88;5364398;26;20073;-66
2024/04/10 08:56:20;;;;;;;16.63;3.20;;;;;;;13.45;100.00;102646.81;5364137;26;19996;-66
2024/04/10 08:58:46;;;;;;;16.08;3.30;;;;;;;13.86;100.00;102648.53;5362285;26;20428;-75
2024/04/10 09:01:23;;;;;;;15.85;3.30;;;;;;;13.83;100.00;102653.78;5364162;26;19996;-75
2024/04/10 09:03:49;;;;;;;18.73;3.13;;;;;;;13.92;100.00;102643.31;5359244;26;19996;-75
2024/04/10 09:06:14;;;;;;;18.30;3.30;;;;;;;14.30;100.00;102654.69;5362162;26;20001;-75
2024/04/10 09:08:39;;;;;;;17.48;3.53;;;;;;;13.89;100.00;102653.91;5406736;26;20444;-75
2024/04/10 09:11:05;;;;;;;16.63;3.45;;;;;;;13.28;100.00;102653.50;5363676;26;20023;-75
2024/04/10 09:13:30;;;;;;;16.02;3.30;;;;;;;13.74;100.00;102657.16;5363878;26;19993;-74
2024/04/10 09:15:57;;;;;;;17.13;3.60;;;;;;;13.64;100.00;102665.81;5363477;26;20008;-65
2024/04/10 09:18:22;;;;;;;18.48;3.60;;;;;;;14.54;100.00;102661.28;5363946;26;20070;-67
2024/04/10 09:20:48;;;;;;;14.55;3.15;;;;;;;15.05;100.00;102671.88;5363911;26;20005;-65
2024/04/10 09:23:15;;;;;;;13.02;2.80;;;;;;;15.25;100.00;102673.03;5364020;26;20020;-69
2024/04/10 09:25:42;;;;;;;16.55;3.20;;;;;;;14.48;100.00;102677.16;5356691;26;20000;-65
2024/04/10 09:28:08;;;;;;;15.57;3.10;;;;;;;13.88;100.00;102682.25;5349224;26;20066;-66
2024/04/10 09:30:37;;;;;;;12.07;2.85;;;;;;;12.93;100.00;102677.50;5348953;26;19997;-65
2024/04/10 09:33:04;;;;;;;14.82;3.08;;;;;;;12.27;100.00;102679.41;5348708;26;20313;-66
2024/04/10 09:35:30;;;;;;;16.27;3.40;;;;;;;12.26;100.00;102673.22;5346525;26;20005;-65
2024/04/10 09:38:03;;;;;;;16.27;3.22;;;;;;;12.44;100.00;102677.19;5348793;26;19993;-65
2024/04/10 09:40:30;;;;;;;17.75;3.20;;;;;;;12.81;100.00;102678.97;5348730;26;19997;-65
2024/04/10 09:43:06;;;;;;;16.92;3.30;;;;;;;13.76;100.00;102690.88;5348299;26;20363;-65
2024/04/10 09:45:35;;;;;;;15.43;3.40;;;;;;;14.54;100.00;102679.03;5348138;26;19997;-65
2024/04/10 09:48:11;;;;;;;15.60;3.13;;;;;;;14.96;100.00;102675.28;5348544;26;20007;-65
2024/04/10 09:50:37;;;;;;;15.10;2.90;;;;;;;15.09;100.00;102676.38;5348589;26;19996;-65
2024/04/10 09:53:07;;;;;;;15.02;3.10;;;;;;;13.99;100.00;102678.91;5348548;26;19997;-65
2024/04/10 09:55:34;;;;;;;17.48;3.10;;;;;;;14.16;100.00;102674.81;5347963;26;20314;-65
2024/04/10 09:58:02;;;;;;;16.73;3.00;;;;;;;13.89;100.00;102677.81;5348573;26;20009;-65
2024/04/10 10:00:29;;;;;;;14.27;2.90;;;;;;;14.69;100.00;102670.41;5348364;26;19993;-66
2024/04/10 10:03:08;;;;;;;17.02;2.90;;;;;;;15.44;100.00;102689.28;5348022;26;20440;-65
2024/04/10 10:05:34;;;;;;;12.88;2.70;;;;;;;14.58;100.00;102689.75;5348446;26;19993;-65
2024/04/10 10:08:04;;;;;;;13.68;2.80;;;;;;;13.67;100.00;102677.38;5348299;26;20000;-64
2024/04/10 10:10:30;;;;;;;13.38;2.80;;;;;;;14.62;100.00;102673.00;5347860;26;20049;-65
2024/04/10 10:13:07;;;;;;;14.15;2.80;;;;;;;16.15;100.00;102674.13;5339391;26;20012;-65
2024/04/10 10:15:33;;;;;;;10.50;2.40;;;;;;;17.00;100.00;102681.13;5341725;26;19997;-73
2024/04/10 10:17:58;;;;;;;11.02;2.50;;;;;;;18.09;100.00;102696.78;5348137;26;20007;-68
2024/04/10 10:20:24;;;;;;;13.00;2.65;;;;;;;18.54;100.00;102691.50;5348080;26;19996;-69
2024/04/10 10:23:00;;;;;;;12.68;2.60;;;;;;;19.28;100.00;102693.19;5347985;26;20336;-65
2024/04/10 10:25:26;;;;;;;12.10;2.42;;;;;;;19.08;89.49;102701.31;5347617;26;20075;-67
2024/04/10 10:28:02;;;;;;;14.30;2.60;;;;;;;18.39;100.00;102702.19;5348007;26;19996;-65
2024/04/10 10:30:28;;;;;;;11.07;2.53;;;;;;;17.80;94.44;102698.47;5347916;26;20470;-67
2024/04/10 10:33:01;;;;;;;13.70;2.67;;;;;;;16.17;100.00;102704.41;5348165;26;19997;-67
2024/04/10 10:35:26;;;;;;;13.90;2.70;;;;;;;16.08;100.00;102701.66;5347750;26;20029;-66
2024/04/10 10:37:52;;;;;;;11.15;2.60;;;;;;;16.03;100.00;102699.81;5347413;26;20004;-70
2024/04/10 10:40:17;;;;;;;11.48;2.50;;;;;;;16.45;100.00;102702.00;5347995;26;20015;-64
2024/04/10 10:42:42;;;;;;;14.63;2.72;;;;;;;16.23;100.00;102701.78;5347654;26;19993;-66
2024/04/10 10:45:09;;;;;;;12.75;2.70;;;;;;;17.27;100.00;102700.91;5347340;26;20043;-70
2024/04/10 10:47:41;;;;;;;10.55;2.50;;;;;;;18.57;91.41;102709.34;5347285;26;20074;-67
2024/04/10 10:50:06;;;;;;;;;;;;;;;20.45;97.99;102708.75;5384418;26;20001;-65
2024/04/10 10:52:32;;;;;;;11.57;2.50;;;;;;;20.70;80.11;102704.06;5346837;26;19934;-68
2024/04/10 10:55:04;;;;;;;12.75;2.40;;;;;;;21.41;71.12;102707.88;5389866;26;20003;-68
2024/04/10 10:57:30;;;;;;;;;;;;;;;22.26;70.66;102714.81;5348085;26;20008;-68
2024/04/10 10:59:55;;;;;;;9.40;2.35;;;;;;;22.32;67.40;102717.44;5347609;26;19926;-66
2024/04/10 11:02:20;;;;;;;10.30;2.25;;;;;;;21.86;54.78;102724.38;5347469;26;20000;-76
2024/04/10 11:04:46;;;;;;;8.88;2.20;;;;;;;20.84;51.43;102725.47;5347352;26;20001;-69
2024/04/10 11:07:15;;;;;;;11.57;2.25;;;;;;;19.77;55.49;102727.88;5347486;26;20003;-71
2024/04/10 11:09:40;;;;;;;11.00;2.50;;;;;;;19.77;58.04;102735.06;5347411;26;20036;-75
2024/04/10 11:12:07;;;;;;;12.18;2.40;;;;;;;18.72;57.50;102733.44;5347427;26;19993;-72
2024/04/10 11:14:32;;;;;;;10.73;2.40;;;;;;;18.04;73.32;102717.31;5340579;26;20009;-75